createdAt,value
2022-12-26T00:01:30.702Z,10.24
2022-12-26T00:03:58.890Z,8.99
2022-12-26T00:06:29.516Z,8.43
2022-12-26T00:08:58.194Z,9.66
2022-12-26T00:11:26.587Z,10.76
2022-12-26T00:14:00.193Z,11.01
2022-12-26T00:16:28.939Z,9.72
2022-12-26T00:18:57.325Z,8.50
2022-12-26T00:21:29.891Z,8.04
2022-12-26T00:23:59.351Z,9.46
2022-12-26T00:26:30.114Z,10.88
2022-12-26T00:28:58.837Z,11.40
2022-12-26T00:31:35.484Z,10.23
2022-12-26T00:34:12.392Z,8.92
2022-12-26T00:36:47.318Z,8.00
2022-12-26T00:39:22.582Z,7.90
2022-12-26T00:41:53.934Z,9.56
2022-12-26T00:44:21.832Z,10.75
2022-12-26T00:46:49.814Z,11.16
2022-12-26T00:49:17.717Z,10.12
2022-12-26T00:51:45.644Z,8.91
2022-12-26T00:54:13.715Z,8.04
2022-12-26T00:56:41.635Z,7.87
2022-12-26T00:59:09.543Z,9.53
2022-12-26T01:01:43.352Z,11.08
2022-12-26T01:04:11.415Z,11.57
2022-12-26T01:06:39.304Z,10.39
2022-12-26T01:09:07.314Z,9.18
2022-12-26T01:11:41.276Z,8.32
2022-12-26T01:14:17.653Z,8.20
2022-12-26T01:16:46.611Z,10.05
2022-12-26T01:19:15.034Z,11.46
2022-12-26T01:21:43.301Z,11.29
2022-12-26T01:24:11.526Z,9.92
2022-12-26T01:26:39.468Z,8.85
2022-12-26T01:29:07.412Z,8.49
2022-12-26T01:31:35.396Z,9.96
2022-12-26T01:34:03.380Z,11.38
2022-12-26T01:36:31.329Z,11.83
2022-12-26T01:38:59.207Z,10.69
2022-12-26T01:41:30.406Z,9.43
2022-12-26T01:44:02.106Z,8.56
2022-12-26T01:46:44.523Z,8.37
2022-12-26T01:49:26.601Z,10.08
2022-12-26T01:52:28.995Z,11.38
2022-12-26T01:54:57.624Z,11.30
2022-12-26T01:57:33.320Z,10.05
2022-12-26T02:00:02.771Z,9.02
2022-12-26T02:03:02.359Z,8.75
2022-12-26T02:05:34.248Z,10.51
2022-12-26T02:08:21.404Z,11.81
2022-12-26T02:10:55.265Z,11.79
2022-12-26T02:13:24.119Z,10.48
2022-12-26T02:15:52.078Z,9.44
2022-12-26T02:18:19.994Z,8.69
2022-12-26T02:21:41.146Z,8.49
2022-12-26T02:24:50.029Z,10.65
2022-12-26T02:27:22.812Z,12.01
2022-12-26T02:30:07.938Z,11.38
2022-12-26T02:33:08.131Z,9.90
2022-12-26T02:35:45.792Z,8.76
2022-12-26T02:38:52.802Z,8.09
2022-12-26T02:42:14.051Z,8.33
2022-12-26T02:45:03.788Z,10.64
2022-12-26T02:48:05.648Z,11.35
2022-12-26T02:50:58.065Z,10.77
2022-12-26T02:54:37.127Z,9.38
2022-12-26T02:57:27.671Z,8.23
2022-12-26T03:00:23.392Z,8.28
2022-12-26T03:03:19.670Z,10.34
2022-12-26T03:06:11.919Z,11.56
2022-12-26T03:09:22.879Z,11.62
2022-12-26T03:12:13.572Z,9.94
2022-12-26T03:14:47.753Z,8.78
2022-12-26T03:17:25.788Z,8.42
2022-12-26T03:20:11.459Z,9.85
2022-12-26T03:22:56.379Z,11.01
2022-12-26T03:25:52.541Z,11.08
2022-12-26T03:28:22.474Z,9.69
2022-12-26T03:30:50.914Z,8.61
2022-12-26T03:33:49.345Z,7.79
2022-12-26T03:36:42.059Z,7.77
2022-12-26T03:39:51.844Z,9.75
2022-12-26T03:42:50.975Z,11.11
2022-12-26T03:45:43.768Z,11.13
2022-12-26T03:48:45.561Z,9.59
2022-12-26T03:51:53.162Z,8.25
2022-12-26T03:55:01.488Z,7.34
2022-12-26T03:57:57.530Z,8.88
2022-12-26T04:00:47.519Z,10.36
2022-12-26T04:03:37.652Z,10.54
2022-12-26T04:06:36.292Z,8.87
2022-12-26T04:09:29.860Z,7.40
2022-12-26T04:12:19.309Z,7.17
2022-12-26T04:15:13.980Z,9.19
2022-12-26T04:18:12.759Z,10.46
2022-12-26T04:21:39.184Z,10.37
2022-12-26T04:24:34.734Z,8.26
2022-12-26T04:27:25.397Z,6.95
2022-12-26T04:30:12.217Z,6.82
2022-12-26T04:33:03.713Z,8.81
2022-12-26T04:36:30.635Z,9.74
2022-12-26T04:39:22.975Z,8.72
2022-12-26T04:42:11.375Z,7.18
2022-12-26T04:44:42.289Z,6.89
2022-12-26T04:47:11.132Z,8.60
2022-12-26T04:50:02.245Z,9.70
2022-12-26T04:52:50.570Z,9.69
2022-12-26T04:55:19.597Z,8.16
2022-12-26T04:57:47.977Z,7.47
2022-12-26T05:00:16.318Z,8.39
2022-12-26T05:03:02.788Z,9.09
2022-12-26T05:05:58.219Z,9.78
2022-12-26T05:09:05.407Z,10.55
2022-12-26T05:11:35.308Z,10.42
2022-12-26T05:14:03.225Z,8.95
2022-12-26T05:16:49.711Z,7.63
2022-12-26T05:19:36.315Z,8.28
2022-12-26T05:22:23.450Z,9.69
2022-12-26T05:25:10.837Z,10.20
2022-12-26T05:28:01.001Z,9.85
2022-12-26T05:30:29.226Z,8.25
2022-12-26T05:33:15.826Z,7.04
2022-12-26T05:35:43.986Z,6.89
2022-12-26T05:38:11.975Z,8.55
2022-12-26T05:40:39.890Z,9.59
2022-12-26T05:43:07.893Z,9.80
2022-12-26T05:45:35.771Z,8.51
2022-12-26T05:48:03.898Z,7.13
2022-12-26T05:50:31.844Z,6.56
2022-12-26T05:52:59.879Z,7.82
2022-12-26T05:55:27.788Z,8.91
2022-12-26T05:57:55.818Z,9.73
2022-12-26T06:00:23.773Z,10.27
2022-12-26T06:02:51.813Z,10.59
2022-12-26T06:05:20.030Z,10.43
2022-12-26T06:07:48.262Z,9.23
2022-12-26T06:10:16.382Z,8.59
2022-12-26T06:12:44.336Z,9.83
2022-12-26T06:15:12.920Z,10.85
2022-12-26T06:17:40.915Z,11.47
2022-12-26T06:20:09.312Z,11.51
2022-12-26T06:22:37.207Z,10.23
2022-12-26T06:25:05.511Z,8.89
2022-12-26T06:27:33.425Z,8.25
2022-12-26T06:30:02.308Z,9.50
2022-12-26T06:32:30.735Z,10.57
2022-12-26T06:34:58.631Z,10.93
2022-12-26T06:37:26.599Z,9.70
2022-12-26T06:39:54.515Z,8.26
2022-12-26T06:42:22.414Z,7.61
2022-12-26T06:44:50.356Z,8.79
2022-12-26T06:47:18.274Z,9.70
2022-12-26T06:49:46.135Z,10.38
2022-12-26T06:52:15.064Z,11.00
2022-12-26T06:54:43.088Z,11.39
2022-12-26T06:57:11.898Z,11.27
2022-12-26T06:59:39.843Z,9.95
2022-12-26T07:02:10.826Z,8.67
2022-12-26T07:04:38.803Z,8.03
2022-12-26T07:07:06.718Z,9.16
2022-12-26T07:09:34.654Z,10.59
2022-12-26T07:12:02.583Z,11.51
2022-12-26T07:14:30.553Z,12.00
2022-12-26T07:16:58.449Z,11.91
2022-12-26T07:19:26.353Z,10.68
2022-12-26T07:21:54.231Z,9.67
2022-12-26T07:24:22.939Z,10.60
2022-12-26T07:26:50.949Z,12.03
2022-12-26T07:29:19.087Z,12.16
2022-12-26T07:31:47.042Z,10.89
2022-12-26T07:34:15.620Z,9.71
2022-12-26T07:36:43.605Z,9.64
2022-12-26T07:39:14.264Z,11.01
2022-12-26T07:42:00.464Z,11.73
2022-12-26T07:44:30.751Z,11.84
2022-12-26T07:47:00.303Z,12.06
2022-12-26T07:49:28.403Z,12.22
2022-12-26T07:51:57.191Z,12.35
2022-12-26T07:54:27.040Z,11.08
2022-12-26T07:57:04.025Z,10.44
2022-12-26T07:59:42.900Z,12.00
2022-12-26T08:02:11.380Z,12.49
2022-12-26T08:04:39.512Z,11.10
2022-12-26T08:07:07.462Z,10.26
2022-12-26T08:09:35.498Z,11.17
2022-12-26T08:12:03.591Z,12.07
2022-12-26T08:14:31.517Z,12.48
2022-12-26T08:16:59.458Z,12.45
2022-12-26T08:19:27.422Z,12.77
2022-12-26T08:21:55.378Z,11.98
2022-12-26T08:24:24.117Z,11.01
2022-12-26T08:26:52.005Z,11.82
2022-12-26T08:29:20.045Z,12.74
2022-12-26T08:31:47.970Z,13.29
2022-12-26T08:34:16.265Z,12.99
2022-12-26T08:36:44.244Z,11.83
2022-12-26T08:39:12.237Z,11.26
2022-12-26T08:41:40.170Z,12.22
2022-12-26T08:44:26.807Z,13.14
2022-12-26T08:46:56.694Z,12.15
2022-12-26T08:49:25.112Z,11.37
2022-12-26T08:51:53.121Z,12.25
2022-12-26T08:54:22.860Z,12.90
2022-12-26T08:56:50.873Z,13.23
2022-12-26T08:59:18.900Z,13.26
2022-12-26T09:01:47.076Z,11.85
2022-12-26T09:04:15.266Z,11.16
2022-12-26T09:06:43.240Z,12.55
2022-12-26T09:09:14.888Z,13.66
2022-12-26T09:11:43.474Z,13.23
2022-12-26T09:14:11.862Z,11.78
2022-12-26T09:16:49.413Z,11.24
2022-12-26T09:19:20.076Z,12.53
2022-12-26T09:21:49.747Z,13.54
2022-12-26T09:24:18.501Z,13.77
2022-12-26T09:26:47.726Z,12.66
2022-12-26T09:29:18.680Z,11.56
2022-12-26T09:31:46.771Z,11.32
2022-12-26T09:34:14.767Z,12.91
2022-12-26T09:36:43.783Z,14.22
2022-12-26T09:39:11.769Z,14.69
2022-12-26T09:42:01.960Z,13.60
2022-12-26T09:45:04.524Z,12.33
2022-12-26T09:47:56.956Z,13.25
2022-12-26T09:50:31.914Z,14.62
2022-12-26T09:53:24.590Z,14.55
2022-12-26T09:56:01.317Z,12.91
2022-12-26T09:58:49.778Z,12.29
2022-12-26T10:01:21.890Z,13.61
2022-12-26T10:03:53.045Z,14.64
2022-12-26T10:06:27.182Z,13.95
2022-12-26T10:09:32.712Z,12.54
2022-12-26T10:12:03.722Z,12.24
2022-12-26T10:14:47.719Z,13.51
2022-12-26T10:17:38.920Z,14.42
2022-12-26T10:20:28.573Z,14.39
2022-12-26T10:23:18.067Z,13.05
2022-12-26T10:26:00.947Z,13.12
2022-12-26T10:28:42.137Z,14.52
2022-12-26T10:31:22.365Z,14.97
2022-12-26T10:34:07.812Z,13.72
2022-12-26T10:36:49.519Z,12.61
2022-12-26T10:39:27.824Z,13.04
2022-12-26T10:42:00.757Z,14.48
2022-12-26T10:44:29.078Z,15.24
2022-12-26T10:47:01.804Z,15.45
2022-12-26T10:49:30.243Z,14.39
2022-12-26T10:52:01.560Z,13.31
2022-12-26T10:54:32.060Z,12.87
2022-12-26T10:57:01.428Z,14.05
2022-12-26T10:59:38.955Z,15.13
2022-12-26T11:02:28.955Z,15.20
2022-12-26T11:05:32.781Z,13.95
2022-12-26T11:08:12.923Z,12.91
2022-12-26T11:10:46.670Z,13.94
2022-12-26T11:13:23.366Z,15.39
2022-12-26T11:15:54.778Z,15.08
2022-12-26T11:18:28.425Z,13.73
2022-12-26T11:21:14.385Z,13.30
2022-12-26T11:23:42.436Z,14.87
2022-12-26T11:26:22.559Z,15.58
2022-12-26T11:29:16.280Z,14.30
2022-12-26T11:31:56.663Z,12.90
2022-12-26T11:34:34.534Z,12.81
2022-12-26T11:37:06.872Z,14.62
2022-12-26T11:39:38.041Z,15.66
2022-12-26T11:42:13.177Z,14.75
2022-12-26T11:44:45.602Z,13.31
2022-12-26T11:47:20.863Z,12.96
2022-12-26T11:50:12.261Z,14.31
2022-12-26T11:52:58.143Z,15.19
2022-12-26T11:55:36.710Z,15.75
2022-12-26T11:58:10.664Z,15.71
2022-12-26T12:01:06.032Z,14.34
2022-12-26T12:03:36.616Z,13.95
2022-12-26T12:06:22.219Z,15.13
2022-12-26T12:09:11.912Z,15.51
2022-12-26T12:11:54.012Z,14.22
2022-12-26T12:14:54.977Z,12.97
2022-12-26T12:17:35.500Z,13.05
2022-12-26T12:20:30.609Z,15.09
2022-12-26T12:23:24.717Z,15.65
2022-12-26T12:26:15.390Z,15.05
2022-12-26T12:29:02.039Z,14.58
2022-12-26T12:32:23.470Z,13.78
2022-12-26T12:35:00.625Z,15.05
2022-12-26T12:37:37.682Z,16.03
2022-12-26T12:40:35.495Z,14.89
2022-12-26T12:43:37.489Z,13.60
2022-12-26T12:46:31.492Z,13.57
2022-12-26T12:49:24.047Z,15.31
2022-12-26T12:52:19.657Z,15.44
2022-12-26T12:55:38.667Z,14.02
2022-12-26T12:58:41.986Z,12.73
2022-12-26T13:01:22.104Z,12.98
2022-12-26T13:04:29.440Z,14.69
2022-12-26T13:07:11.346Z,15.47
2022-12-26T13:09:47.759Z,15.05
2022-12-26T13:12:21.182Z,14.83
2022-12-26T13:15:00.810Z,14.85
2022-12-26T13:17:35.870Z,14.49
2022-12-26T13:20:15.696Z,14.31
2022-12-26T13:23:07.992Z,13.75
2022-12-26T13:25:44.339Z,13.04
2022-12-26T13:28:19.533Z,13.68
2022-12-26T13:30:54.147Z,14.99
2022-12-26T13:33:22.845Z,14.76
2022-12-26T13:35:59.652Z,13.49
2022-12-26T13:38:58.752Z,13.15
2022-12-26T13:41:46.349Z,14.78
2022-12-26T13:44:20.389Z,15.35
2022-12-26T13:46:48.294Z,14.79
2022-12-26T13:49:28.399Z,13.98
2022-12-26T13:52:19.890Z,13.14
2022-12-26T13:54:47.984Z,13.36
2022-12-26T13:57:34.536Z,14.93
2022-12-26T14:00:08.923Z,14.44
2022-12-26T14:05:49.611Z,13.16
2022-12-26T14:08:42.325Z,14.84
2022-12-26T14:11:49.837Z,14.99
2022-12-26T14:14:53.959Z,13.36
2022-12-26T14:18:03.427Z,12.98
2022-12-26T14:20:53.024Z,14.68
2022-12-26T14:24:03.509Z,14.93
2022-12-26T14:26:55.672Z,13.31
2022-12-26T14:29:41.349Z,13.08
2022-12-26T14:32:44.117Z,14.62
2022-12-26T14:35:29.191Z,14.04
2022-12-26T14:38:24.520Z,12.77
2022-12-26T14:40:58.446Z,13.36
2022-12-26T14:43:31.889Z,14.75
2022-12-26T14:46:00.831Z,14.47
2022-12-26T14:48:28.712Z,13.22
2022-12-26T14:51:19.279Z,12.88
2022-12-26T14:54:16.999Z,14.30
2022-12-26T14:56:45.163Z,14.81
2022-12-26T14:59:29.629Z,13.55
2022-12-26T15:02:30.032Z,12.95
2022-12-26T15:05:04.756Z,14.48
2022-12-26T15:07:56.156Z,14.81
2022-12-26T15:11:34.810Z,13.45
2022-12-26T15:14:18.375Z,13.26
2022-12-26T15:16:58.037Z,14.45
2022-12-26T15:20:05.314Z,15.28
2022-12-26T15:22:45.042Z,14.91
2022-12-26T15:25:49.022Z,13.44
2022-12-26T15:28:35.588Z,13.06
2022-12-26T15:31:27.895Z,14.36
2022-12-26T15:34:27.974Z,15.24
2022-12-26T15:37:06.039Z,15.30
2022-12-26T15:39:47.080Z,13.89
2022-12-26T15:42:20.903Z,12.72
2022-12-26T15:45:07.166Z,12.42
2022-12-26T15:47:46.529Z,14.02
2022-12-26T15:50:26.738Z,15.15
2022-12-26T15:53:06.945Z,15.27
2022-12-26T15:55:49.835Z,13.90
2022-12-26T15:58:36.157Z,12.60
2022-12-26T16:01:04.691Z,12.74
2022-12-26T16:03:53.749Z,14.07
2022-12-26T16:06:49.764Z,14.86
2022-12-26T16:09:41.595Z,15.30
2022-12-26T16:12:21.856Z,13.99
2022-12-26T16:14:59.450Z,13.17
2022-12-26T16:17:28.169Z,14.15
2022-12-26T16:19:56.733Z,14.75
2022-12-26T16:22:45.866Z,15.16
2022-12-26T16:25:21.582Z,15.23
2022-12-26T16:27:58.500Z,13.80
2022-12-26T16:30:29.855Z,13.15
2022-12-26T16:33:00.291Z,14.41
2022-12-26T16:35:40.316Z,14.82
2022-12-26T16:38:15.422Z,13.52
2022-12-26T16:40:46.087Z,12.96
2022-12-26T16:43:13.917Z,14.09
2022-12-26T16:45:43.946Z,14.80
2022-12-26T16:48:15.541Z,14.96
2022-12-26T16:50:52.317Z,13.52
2022-12-26T16:53:25.002Z,12.85
2022-12-26T16:56:29.201Z,13.89
2022-12-26T16:59:16.864Z,14.94
2022-12-26T17:02:00.591Z,14.58
2022-12-26T17:04:30.291Z,13.36
2022-12-26T17:07:02.545Z,13.99
2022-12-26T17:09:41.639Z,14.70
2022-12-26T17:12:20.051Z,14.98
2022-12-26T17:14:50.104Z,15.12
2022-12-26T17:17:24.044Z,15.25
2022-12-26T17:19:56.813Z,14.86
2022-12-26T17:22:29.376Z,13.36
2022-12-26T17:25:22.563Z,13.43
2022-12-26T17:28:08.900Z,14.38
2022-12-26T17:30:39.368Z,15.02
2022-12-26T17:33:20.711Z,15.14
2022-12-26T17:38:40.834Z,15.43
2022-12-26T17:41:09.945Z,15.53
2022-12-26T17:43:39.832Z,14.42
2022-12-26T17:46:13.501Z,13.30
2022-12-26T17:48:42.531Z,14.00
2022-12-26T17:51:18.059Z,14.54
2022-12-26T17:53:51.089Z,15.27
2022-12-26T17:56:25.692Z,15.46
2022-12-26T17:58:55.328Z,15.54
2022-12-26T18:01:23.425Z,14.70
2022-12-26T18:03:52.949Z,13.58
2022-12-26T18:06:24.378Z,14.27
2022-12-26T18:08:52.366Z,14.79
2022-12-26T18:11:20.267Z,14.68
2022-12-26T18:13:48.181Z,14.91
2022-12-26T18:16:18.801Z,15.20
2022-12-26T18:18:47.676Z,15.23
2022-12-26T18:21:16.387Z,15.59
2022-12-26T18:23:44.960Z,15.06
2022-12-26T18:26:25.023Z,13.41
2022-12-26T18:28:53.099Z,13.40
2022-12-26T18:31:21.526Z,14.26
2022-12-26T18:33:50.164Z,14.81
2022-12-26T18:36:20.234Z,15.00
2022-12-26T18:38:48.126Z,15.24
2022-12-26T18:41:18.146Z,15.63
2022-12-26T18:43:46.742Z,14.36
2022-12-26T18:46:20.470Z,13.09
2022-12-26T18:48:49.509Z,13.49
2022-12-26T18:51:17.478Z,14.51
2022-12-26T18:53:45.380Z,15.20
2022-12-26T18:56:16.870Z,15.31
2022-12-26T18:58:45.885Z,13.97
2022-12-26T19:01:24.649Z,13.56
2022-12-26T19:03:54.097Z,14.40
2022-12-26T19:06:27.961Z,14.87
2022-12-26T19:08:56.530Z,15.03
2022-12-26T19:11:24.828Z,14.95
2022-12-26T19:13:53.037Z,13.63
2022-12-26T19:16:24.035Z,13.55
2022-12-26T19:18:52.508Z,14.56
2022-12-26T19:21:20.652Z,14.85
2022-12-26T19:23:48.638Z,15.16
2022-12-26T19:26:18.386Z,15.33
2022-12-26T19:28:52.444Z,14.60
2022-12-26T19:31:24.038Z,13.17
2022-12-26T19:33:52.054Z,14.01
2022-12-26T19:36:23.429Z,14.69
2022-12-26T19:38:54.372Z,15.13
2022-12-26T19:41:22.473Z,15.28
2022-12-26T19:43:58.685Z,15.01
2022-12-26T19:46:33.305Z,13.33
2022-12-26T19:49:09.992Z,12.94
2022-12-26T19:51:46.452Z,14.01
2022-12-26T19:54:21.121Z,14.77
2022-12-26T19:57:29.375Z,15.16
2022-12-26T20:00:05.054Z,14.50
2022-12-26T20:02:53.696Z,12.93
2022-12-26T20:05:27.708Z,13.11
2022-12-26T20:08:03.300Z,14.34
2022-12-26T20:10:38.538Z,14.99
2022-12-26T20:13:13.568Z,14.98
2022-12-26T20:15:41.476Z,15.30
2022-12-26T20:18:14.733Z,14.30
2022-12-26T20:21:31.498Z,13.34
2022-12-26T20:24:37.432Z,13.76
2022-12-26T20:27:13.847Z,14.55
2022-12-26T20:30:19.436Z,14.79
2022-12-26T20:32:47.661Z,14.95
2022-12-26T20:35:15.680Z,14.99
2022-12-26T20:37:43.774Z,14.87
2022-12-26T20:40:12.130Z,13.40
2022-12-26T20:42:40.347Z,12.58
2022-12-26T20:45:08.704Z,13.50
2022-12-26T20:47:36.687Z,14.09
2022-12-26T20:50:06.228Z,14.47
2022-12-26T20:52:34.169Z,14.79
2022-12-26T20:55:02.167Z,14.59
2022-12-26T20:57:30.146Z,14.37
2022-12-26T20:59:58.072Z,14.65
2022-12-26T21:02:28.189Z,14.42
2022-12-26T21:04:56.419Z,14.82
2022-12-26T21:07:34.408Z,14.12
2022-12-26T21:10:04.950Z,12.91
2022-12-26T21:12:32.890Z,13.41
2022-12-26T21:15:00.810Z,13.88
2022-12-26T21:17:28.808Z,14.09
2022-12-26T21:19:56.887Z,13.91
2022-12-26T21:22:24.872Z,14.33
2022-12-26T21:24:52.984Z,14.62
2022-12-26T21:27:24.585Z,14.59
2022-12-26T21:29:52.927Z,14.55
2022-12-26T21:32:20.828Z,14.78
2022-12-26T21:34:56.300Z,13.96
2022-12-26T21:37:42.535Z,12.84
2022-12-26T21:40:10.882Z,13.64
2022-12-26T21:42:38.902Z,14.26
2022-12-26T21:45:07.541Z,14.71
2022-12-26T21:47:35.699Z,14.26
2022-12-26T21:50:04.983Z,12.94
2022-12-26T21:52:36.056Z,12.99
2022-12-26T21:55:23.118Z,13.77
2022-12-26T21:57:51.003Z,14.50
2022-12-26T22:00:19.195Z,14.82
2022-12-26T22:03:06.173Z,14.70
2022-12-26T22:05:39.771Z,13.22
2022-12-26T22:08:09.795Z,12.37
2022-12-26T22:11:02.293Z,13.12
2022-12-26T22:13:37.058Z,14.14
2022-12-26T22:16:07.906Z,14.77
2022-12-26T22:18:42.706Z,15.00
2022-12-26T22:21:13.782Z,15.02
2022-12-26T22:23:43.244Z,14.86
2022-12-26T22:26:14.597Z,13.58
2022-12-26T22:28:43.175Z,12.74
2022-12-26T22:31:30.148Z,13.66
2022-12-26T22:34:07.471Z,14.81
2022-12-26T22:36:35.779Z,15.27
2022-12-26T22:39:04.030Z,15.22
2022-12-26T22:41:33.515Z,13.83
2022-12-26T22:44:01.586Z,12.60
2022-12-26T22:46:29.669Z,12.22
2022-12-26T22:48:57.897Z,13.63
2022-12-26T22:51:26.790Z,14.69
2022-12-26T22:53:56.894Z,15.35
2022-12-26T22:56:25.443Z,15.35
2022-12-26T22:58:57.419Z,13.85
2022-12-26T23:01:25.512Z,12.50
2022-12-26T23:03:53.625Z,12.07
2022-12-26T23:07:14.467Z,13.48
2022-12-26T23:09:45.010Z,14.74
2022-12-26T23:12:35.146Z,15.41
2022-12-26T23:15:03.768Z,15.15
2022-12-26T23:17:54.290Z,13.69
2022-12-26T23:20:45.469Z,12.27
2022-12-26T23:23:13.654Z,12.06
2022-12-26T23:25:41.922Z,13.61
2022-12-26T23:28:45.357Z,14.58
2022-12-26T23:31:38.078Z,14.50
2022-12-26T23:34:11.213Z,12.95
2022-12-26T23:36:46.926Z,12.28
2022-12-26T23:39:19.041Z,13.54
2022-12-26T23:41:47.877Z,14.60
2022-12-26T23:44:31.780Z,14.78
2022-12-26T23:47:05.628Z,13.15
2022-12-26T23:49:33.601Z,12.37
2022-12-26T23:52:01.885Z,13.57
2022-12-26T23:54:29.869Z,14.63
2022-12-26T23:56:58.129Z,14.73
2022-12-26T23:59:26.234Z,13.36
